Airfield :
LOGIN :

Register | Disclaimer

   EN    FR    IT 

 










Legend :    VFR   Marginal VFR   IFR   Intensive IFR   Very Intensive IFR
Visi :
Ceiling :
>= 8 km
>= 3000ft
5 to 8 km
1000 to 3000 ft
1500m to 5 km
500 to 1000 ft
800 to 1500m
200 to 500 ft
< 800m
< 200 ft
Symbols :   Thunderstorms  Fog  Heavy snow  Heavy precipitations  Wind > 20 kt
SIGMETs :     Misc.  Thunderstorms  Icing  Turbulence  Mountain Waves  Volcanic Ashes







- Airport Elevation : 0 ft


ENOA - Oseberg A Platform

CURRENT METAR :
  • 211320Z 18019KT 7000 BKN095 09/07 Q1016 W///S3

EXPIRED METARs :
  • 211250Z 19018KT 8000 SCT090 09/07 Q1016 W///S3
  • 211222Z 18020KT 9000 SCT080 09/07 Q1016 W///S3
  • 211150Z 18020KT 9000 SCT040 BKN070 09/07 Q1017 W///S3
  • 211120Z 19020KT 8000 SCT040 BKN050 09/07 Q1017 W///S3

TAF ENOA
Valid from the 21 at 12:00 until the 22 at 12:00 UTC


2112/2212 17022KT 9999 FEW030 SCT070
PROB30
TEMPO 2112/2116 4000 BR BKN007
BECMG 2121/2123 17032KT
No reported NOTAMs for that airfield.
1 SIGMET reported for the Norway FIR (ENOR) :
 
Severe mountain waves
ENBD SIGMET D02 VALID 211200/211600 ENVN
ENOR NORWAY FIR SEV MTW FCST WI N7020 E02015 - N7040 E02305 - N6940 E02255 - N6905 E01935 - N7020 E02015 SFC/FL120 STNR WKN=



MET'MAP, your aeronautical weather chart ! - Copyright ORBIFLY December 2007 - Disclaimer

ORBIFLY MET'MAP TEAM :

Programming & Development : Alexandra Zaïnal
Concept & Development : Baudouin d'Aumeries
Co-Development & Prog : Marc-Olivier Méhu
Technical & hardware support : Manuel Goepfert

Contact : metmap@orbifly.com




SOURCES & CREDITS :

   NOAA